Observations for CRANWELL RAF, United Kingdom (EGYD)

EGYD 250250Z AUTO 25009KT 9999 // FEW150/// 02/00 Q1011 
EGYD 250150Z AUTO 26011KT 9999 // BKN050/// 02/01 Q1011 
EGYD 250050Z AUTO 26010KT 9999 // OVC090/// 02/00 Q1011 
EGYD 242350Z AUTO 25010KT 9999 // BKN090/// 02/00 Q1011 
EGYD 242250Z AUTO 26009KT 9999 // FEW110/// 02/M00 Q1011
EGYD 242150Z AUTO 25009KT 9999 // SCT050/// 02/M00 Q1011
EGYD 242050Z AUTO 22008KT 9999 // NCD 01/M01 Q1011  
EGYD 241950Z AUTO 21009KT 9999 // NCD 00/M02 Q1011  
EGYD 241850Z AUTO 22008KT 9999 // NCD 00/M02 Q1011  
EGYD 241750Z AUTO 24005KT 9999 // NCD 01/M01 Q1011  
EGYD 241650Z AUTO 21006KT 9999 // NCD 02/M00 Q1010  
EGYD 241550Z 22009KT CAVOK 04/00 Q1010 BLU NOSIG
EGYD 241450Z 25010KT CAVOK 06/01 Q1010 BLU NOSIG
EGYD 241350Z 25011KT 9999 FEW024 07/01 Q1010 BLU NOSIG  
EGYD 241250Z 25011KT CAVOK 07/01 Q1010 BLU NOSIG
EGYD 241150Z 25011KT CAVOK 06/01 Q1010 BLU NOSIG
EGYD 241050Z 25013KT CAVOK 05/01 Q1010 BLU NOSIG
EGYD 240950Z 24012KT CAVOK 04/01 Q1009 BLU NOSIG
EGYD 240850Z 24009KT CAVOK 02/00 Q1009 BLU NOSIG
EGYD 240750Z 25008KT CAVOK 02/00 Q1008 BLU NOSIG
EGYD 240650Z 25009KT CAVOK 02/01 Q1007 BLU NOSIG
EGYD 240550Z AUTO 25008KT 9999 // BKN140/// 03/01 Q1007 
EGYD 240450Z AUTO 26008KT 9999 // BKN120/// 03/01 Q1006 
EGYD 240350Z AUTO 25007KT 9999 // OVC130/// 03/01 Q1006 
EGYD 240250Z AUTO 26004KT 9999 // OVC130/// 04/01 Q1005